Time;durP1;ratioP1;P1;durP2;ratioP2;P2;SDS_P1;SDS_P2;PMS_P1;PMS_P2;Temp;Humidity;BMP_temperature;BMP_pressure;BME280_temperature;BME280_humidity;BME280_pressure;Samples;Min_cycle;Max_cycle;Signal;HPM_P1;HPM_P2
2022/04/03 00:04:02;;;;;;;8.40;6.40;;;;;;;-1.40;66.52;100971.19;8524576;33;20202;-77
2022/04/03 00:09:06;;;;;;;8.53;5.73;;;;;;;-1.33;66.25;100964.00;8523448;33;20161;-77
2022/04/03 00:14:09;;;;;;;10.43;6.20;;;;;;;-1.36;65.17;100964.06;8524416;33;20498;-77
2022/04/03 00:19:13;;;;;;;11.43;6.30;;;;;;;-1.52;65.67;100958.25;8525483;33;20411;-77
2022/04/03 00:24:17;;;;;;;14.50;8.73;;;;;;;-1.77;66.15;100971.09;8528130;33;20170;-76
2022/04/03 00:29:20;;;;;;;12.67;8.10;;;;;;;-1.78;66.70;100974.63;8526511;33;20442;-76
2022/04/03 00:34:25;;;;;;;11.77;7.97;;;;;;;-1.92;66.72;100966.13;8527766;33;20838;-77
2022/04/03 00:39:28;;;;;;;13.80;6.70;;;;;;;-2.23;67.67;100981.66;8527590;33;20547;-76
2022/04/03 00:44:32;;;;;;;11.57;7.00;;;;;;;-2.19;68.50;100973.69;8527094;33;20131;-76
2022/04/03 00:49:37;;;;;;;8.30;6.07;;;;;;;-2.31;68.63;100971.25;8526926;33;20204;-76
2022/04/03 00:54:40;;;;;;;10.97;6.93;;;;;;;-2.24;68.82;100972.91;8530805;33;20423;-77
2022/04/03 00:59:44;;;;;;;10.03;6.73;;;;;;;-2.39;68.67;100974.03;8533517;33;20399;-76
2022/04/03 01:04:48;;;;;;;9.83;6.37;;;;;;;-2.32;68.80;100974.78;8527046;33;20408;-77
2022/04/03 01:09:53;;;;;;;7.27;6.33;;;;;;;-2.22;68.66;100970.22;8524844;33;20503;-76
2022/04/03 01:14:56;;;;;;;10.40;6.53;;;;;;;-2.26;68.55;100972.03;8526642;33;20499;-76
2022/04/03 01:20:00;;;;;;;9.80;6.10;;;;;;;-2.20;68.32;100973.69;8526468;33;21124;-76
2022/04/03 01:25:08;;;;;;;11.30;6.60;;;;;;;-2.19;68.51;100971.06;8526645;33;20411;-77
2022/04/03 01:30:12;;;;;;;11.90;6.57;;;;;;;-2.16;68.59;100978.03;8525737;33;20814;-77
2022/04/03 01:35:15;;;;;;;10.97;6.97;;;;;;;-2.28;68.55;100976.47;8524610;33;20887;-76
2022/04/03 01:40:20;;;;;;;9.77;7.17;;;;;;;-2.46;69.23;100971.56;8525391;33;20637;-76
2022/04/03 01:45:23;;;;;;;9.90;6.80;;;;;;;-2.42;69.31;100974.09;8525528;33;20989;-76
2022/04/03 01:50:26;;;;;;;10.13;6.57;;;;;;;-2.55;69.85;100970.81;8525557;33;20403;-76
2022/04/03 01:55:31;;;;;;;11.50;7.30;;;;;;;-2.58;70.05;100969.97;8524024;33;20423;-77
2022/04/03 02:00:34;;;;;;;9.50;6.67;;;;;;;-2.64;70.30;100964.84;8525179;33;20408;-77
2022/04/03 02:05:37;;;;;;;10.07;6.90;;;;;;;-2.51;70.15;100969.84;8524076;33;20397;-77
2022/04/03 02:10:42;;;;;;;10.40;7.07;;;;;;;-2.44;70.01;100956.59;8525223;33;21225;-76
2022/04/03 02:15:45;;;;;;;12.37;7.00;;;;;;;-2.42;70.21;100952.16;8524728;33;20386;-76
2022/04/03 02:20:48;;;;;;;9.67;7.23;;;;;;;-2.26;69.88;100963.28;8524941;33;20580;-77
2022/04/03 02:25:52;;;;;;;11.43;7.30;;;;;;;-2.30;69.78;100962.50;8523047;33;20419;-76
2022/04/03 02:30:55;;;;;;;9.23;7.20;;;;;;;-2.57;70.59;100954.19;8524762;33;20456;-76
2022/04/03 02:35:59;;;;;;;12.67;7.70;;;;;;;-2.44;70.68;100959.22;8524236;33;20263;-76
2022/04/03 02:41:05;;;;;;;10.73;7.40;;;;;;;-2.24;70.60;100954.47;8524257;33;20419;-76
2022/04/03 02:46:08;;;;;;;10.27;7.20;;;;;;;-2.18;69.94;100949.09;8524077;33;20146;-76
2022/04/03 02:51:11;;;;;;;9.73;6.80;;;;;;;-2.24;69.69;100962.38;8524357;33;20409;-76
2022/04/03 02:56:16;;;;;;;14.97;7.93;;;;;;;-2.33;70.38;100962.50;8523814;33;20434;-76
2022/04/03 03:01:19;;;;;;;10.33;7.60;;;;;;;-2.23;70.79;100963.22;8523824;33;21164;-76
2022/04/03 03:06:23;;;;;;;9.73;6.83;;;;;;;-2.12;70.65;100953.34;8523581;33;20127;-76
2022/04/03 03:11:28;;;;;;;10.60;7.67;;;;;;;-2.03;70.36;100947.91;8523944;33;20412;-76
2022/04/03 03:16:31;;;;;;;10.33;7.13;;;;;;;-2.16;70.19;100952.56;8523462;33;20423;-77
2022/04/03 03:21:34;;;;;;;11.33;8.23;;;;;;;-2.10;70.84;100955.06;8526274;33;20976;-76
2022/04/03 03:26:39;;;;;;;11.97;8.03;;;;;;;-1.99;70.54;100952.22;8525886;33;20637;-77
2022/04/03 03:31:42;;;;;;;9.47;6.77;;;;;;;-2.24;70.70;100950.97;8523474;33;20428;-76
2022/04/03 03:36:45;;;;;;;11.10;7.50;;;;;;;-2.16;71.35;100960.44;8522914;33;20434;-76
2022/04/03 03:41:50;;;;;;;13.37;7.17;;;;;;;-2.20;70.82;100940.34;8521933;33;20963;-76
2022/04/03 03:46:53;;;;;;;11.20;7.70;;;;;;;-2.13;71.15;100956.91;8522727;33;20450;-76
2022/04/03 03:51:56;;;;;;;12.87;8.40;;;;;;;-2.04;71.46;100961.97;8523676;33;20882;-77
2022/04/03 03:57:01;;;;;;;11.40;8.50;;;;;;;-2.00;71.48;100954.88;8528360;33;20618;-76
2022/04/03 04:02:04;;;;;;;16.33;9.00;;;;;;;-1.95;71.19;100959.16;8528879;33;20422;-76
2022/04/03 04:07:08;;;;;;;13.43;8.23;;;;;;;-1.89;71.58;100966.94;8528562;33;20415;-76
2022/04/03 04:12:12;;;;;;;14.13;9.23;;;;;;;-1.94;71.13;100962.66;8528411;33;20429;-76
2022/04/03 04:17:16;;;;;;;11.13;7.93;;;;;;;-1.82;71.50;100951.88;8526540;33;20467;-76
2022/04/03 04:22:19;;;;;;;10.93;7.77;;;;;;;-1.66;70.99;100961.19;8527135;33;20128;-76
2022/04/03 04:27:24;;;;;;;12.20;7.90;;;;;;;-1.62;70.39;100961.97;8527441;33;20444;-76
2022/04/03 04:32:27;;;;;;;13.00;8.13;;;;;;;-1.70;70.29;100956.91;8526796;33;20377;-76
2022/04/03 04:37:31;;;;;;;10.60;7.90;;;;;;;-1.63;70.64;100974.28;8527742;33;20499;-76
2022/04/03 04:42:35;;;;;;;10.40;8.93;;;;;;;-1.59;70.89;100971.59;8527537;33;20420;-76
2022/04/03 04:47:39;;;;;;;12.07;7.70;;;;;;;-1.73;70.42;100975.38;8527262;33;20424;-77
2022/04/03 04:52:43;;;;;;;9.83;7.77;;;;;;;-1.81;71.05;100972.06;8527091;33;20433;-76
2022/04/03 04:57:52;;;;;;;12.63;8.03;;;;;;;-1.85;71.83;100989.69;8526803;33;20420;-77
2022/04/03 05:02:56;;;;;;;11.10;8.07;;;;;;;-1.83;72.20;100976.50;8526868;33;20812;-76
2022/04/03 05:08:00;;;;;;;11.13;7.97;;;;;;;-1.96;72.63;100977.63;8526406;33;20135;-77
2022/04/03 05:13:09;;;;;;;11.80;7.70;;;;;;;-2.11;73.30;100986.69;8525313;33;20395;-77
2022/04/03 05:18:12;;;;;;;15.43;9.00;;;;;;;-2.16;73.30;100983.28;8526086;33;20335;-76
2022/04/03 05:23:15;;;;;;;12.20;7.83;;;;;;;-2.14;73.58;100978.84;8526625;33;20120;-76
2022/04/03 05:28:21;;;;;;;11.60;7.80;;;;;;;-2.15;72.88;100972.72;8525969;33;20443;-76
2022/04/03 05:33:24;;;;;;;12.03;8.17;;;;;;;-2.15;72.38;100972.72;8526346;33;20120;-76
2022/04/03 05:38:27;;;;;;;11.73;7.83;;;;;;;-2.09;72.40;100967.31;8526854;33;20130;-77
2022/04/03 05:43:32;;;;;;;14.73;8.03;;;;;;;-2.02;72.64;100980.38;8527095;33;20750;-76
2022/04/03 05:48:35;;;;;;;9.13;7.33;;;;;;;-1.92;72.50;100981.91;8526722;33;20405;-76
2022/04/03 05:53:39;;;;;;;10.37;7.67;;;;;;;-1.62;72.15;100986.59;8525344;33;20886;-76
2022/04/03 05:58:44;;;;;;;10.17;7.93;;;;;;;-1.38;71.34;100984.31;8526255;33;20531;-76
2022/04/03 06:03:47;;;;;;;10.03;7.40;;;;;;;-1.18;71.14;100997.03;8526302;33;20410;-76
2022/04/03 06:08:50;;;;;;;11.40;8.27;;;;;;;-1.08;70.33;101006.47;8525879;33;20437;-76
2022/04/03 06:13:54;;;;;;;12.20;7.80;;;;;;;-0.83;70.04;101003.28;8525937;33;20410;-76
2022/04/03 06:18:57;;;;;;;9.90;7.53;;;;;;;-0.68;68.87;101010.81;8525926;33;20386;-76
2022/04/03 06:24:00;;;;;;;3.93;3.30;;;;;;;-0.41;67.81;101014.56;8525921;33;20446;-77
2022/04/03 06:29:05;;;;;;;19.70;9.80;;;;;;;-0.33;67.17;101009.06;8524476;33;20203;-76
2022/04/03 06:34:08;;;;;;;14.63;7.77;;;;;;;-0.29;66.64;101010.72;8526875;33;20507;-76
2022/04/03 06:39:12;;;;;;;11.83;8.20;;;;;;;-0.02;66.28;101014.41;8529416;33;20417;-76
2022/04/03 06:44:16;;;;;;;11.83;7.30;;;;;;;0.23;65.76;101011.94;8527178;33;20429;-76
2022/04/03 06:49:19;;;;;;;10.23;7.27;;;;;;;0.56;64.58;101001.31;8524823;33;20479;-76
2022/04/03 06:54:22;;;;;;;11.27;7.47;;;;;;;0.95;63.53;101016.88;8525050;33;20430;-75
2022/04/03 06:59:27;;;;;;;10.30;7.53;;;;;;;1.36;62.56;101006.75;8525581;33;20529;-74
2022/04/03 07:04:30;;;;;;;8.20;5.95;;;;;;;1.39;61.59;101014.59;8524921;33;20414;-75
2022/04/03 07:09:40;;;;;;;10.23;6.37;;;;;;;1.27;61.63;101014.09;8523840;33;21265;-74
2022/04/03 07:14:45;;;;;;;6.55;5.13;;;;;;;1.33;61.37;101015.66;8523577;33;20593;-73
2022/04/03 07:19:48;;;;;;;7.37;4.93;;;;;;;1.49;61.28;101014.25;8525125;33;20616;-74
2022/04/03 07:24:51;;;;;;;6.03;4.17;;;;;;;1.61;58.93;101020.91;8509421;33;20425;-74
2022/04/03 07:29:55;;;;;;;5.95;4.50;;;;;;;2.17;58.86;101010.13;8464567;33;20934;-74
2022/04/03 07:34:58;;;;;;;4.00;3.53;;;;;;;2.75;55.20;101015.09;8502867;33;20460;-74
2022/04/03 07:40:03;;;;;;;6.13;3.27;;;;;;;3.18;54.41;101007.19;8523644;33;20874;-74
2022/04/03 07:45:11;;;;;;;4.93;2.50;;;;;;;2.35;51.94;101008.56;8522824;33;20426;-74
2022/04/03 07:50:14;;;;;;;5.27;2.70;;;;;;;3.03;53.18;101003.38;8463383;33;20521;-74
2022/04/03 07:55:17;;;;;;;3.63;2.60;;;;;;;2.79;50.80;101005.19;8497433;33;20561;-74
2022/04/03 08:00:22;;;;;;;3.20;2.80;;;;;;;3.05;52.56;101005.06;8523616;33;20407;-74
2022/04/03 08:05:25;;;;;;;4.57;3.20;;;;;;;3.73;49.63;101003.16;8523145;33;20407;-74
2022/04/03 08:10:28;;;;;;;2.83;2.58;;;;;;;2.73;51.69;101006.31;8523192;33;20465;-74
2022/04/03 08:15:33;;;;;;;3.80;3.10;;;;;;;3.20;51.88;101008.00;8521596;33;20408;-75
2022/04/03 08:20:38;;;;;;;4.55;3.03;;;;;;;3.44;50.05;101011.47;8522983;33;20477;-75
2022/04/03 08:25:41;;;;;;;4.45;3.10;;;;;;;3.35;50.57;100996.78;8522043;33;20128;-75
2022/04/03 08:30:45;;;;;;;4.82;2.85;;;;;;;3.79;50.21;101002.00;8522252;33;20408;-74
2022/04/03 08:35:50;;;;;;;3.55;2.47;;;;;;;3.85;49.50;101001.75;8499090;33;20127;-73
2022/04/03 08:40:53;;;;;;;3.15;2.83;;;;;;;3.99;48.70;101014.44;8525196;33;20420;-73
2022/04/03 08:45:58;;;;;;;3.70;2.45;;;;;;;4.28;48.06;100999.84;8549843;33;21650;-74
2022/04/03 08:51:05;;;;;;;5.32;2.80;;;;;;;4.66;47.58;101004.34;8526377;33;20417;-74
2022/04/03 08:56:08;;;;;;;3.80;2.70;;;;;;;4.28;46.36;101009.59;8527315;33;20463;-74
2022/04/03 09:01:15;;;;;;;5.28;2.67;;;;;;;4.02;49.19;101008.97;8527449;33;20339;-74
2022/04/03 09:06:20;;;;;;;2.65;2.35;;;;;;;3.64;49.37;101022.09;8526903;33;20434;-75
2022/04/03 09:11:29;;;;;;;3.15;2.63;;;;;;;3.35;51.24;101025.13;8542956;33;20400;-74
2022/04/03 09:16:41;;;;;;;3.70;3.20;;;;;;;5.06;48.75;101008.69;8526118;33;20177;-74
2022/04/03 09:21:45;;;;;;;5.32;3.17;;;;;;;5.08;49.92;101012.16;8526306;33;20162;-74
2022/04/03 09:26:58;;;;;;;5.30;3.33;;;;;;;3.87;50.56;101001.69;8525508;33;20439;-75
2022/04/03 09:32:04;;;;;;;4.28;1.77;;;;;;;3.49;52.56;100999.72;8525841;33;20883;-74
2022/04/03 09:37:07;;;;;;;2.55;2.35;;;;;;;3.70;52.41;100992.66;8525638;33;20548;-75
2022/04/03 09:42:12;;;;;;;2.15;2.03;;;;;;;3.76;50.77;100986.19;8526101;33;20921;-74
2022/04/03 09:47:21;;;;;;;3.13;2.22;;;;;;;3.90;50.84;100990.91;8547944;33;20155;-76
2022/04/03 09:52:39;;;;;;;5.30;2.75;;;;;;;3.92;50.52;100989.03;8523877;33;20266;-75
2022/04/03 09:57:43;;;;;;;2.90;2.30;;;;;;;4.13;51.35;100988.09;8525541;33;20353;-75
2022/04/03 10:03:11;;;;;;;3.00;2.20;;;;;;;3.91;49.31;100966.91;8546331;33;20426;-75
2022/04/03 10:08:15;;;;;;;2.33;2.10;;;;;;;3.97;50.73;100973.75;8523837;33;20820;-74
2022/04/03 10:13:20;;;;;;;2.78;2.40;;;;;;;4.05;50.24;100984.06;8525448;33;20449;-75
2022/04/03 10:18:25;;;;;;;3.17;1.90;;;;;;;4.39;50.35;100970.97;8524676;33;20501;-74
2022/04/03 10:23:30;;;;;;;3.22;1.92;;;;;;;4.29;49.42;100976.78;8520644;33;20440;-75
2022/04/03 10:28:35;;;;;;;2.28;1.88;;;;;;;4.12;49.59;100966.91;8523797;33;20839;-75
2022/04/03 10:33:42;;;;;;;4.00;2.03;;;;;;;3.92;50.19;100967.78;8524177;33;20502;-74
2022/04/03 10:38:47;;;;;;;2.95;1.50;;;;;;;4.37;50.72;100961.34;8520008;33;20135;-75
2022/04/03 10:43:50;;;;;;;5.32;2.42;;;;;;;4.61;50.08;100959.34;8523785;33;20459;-75
2022/04/03 10:48:55;;;;;;;2.15;1.73;;;;;;;4.25;52.02;100957.44;8523545;33;20268;-76
2022/04/03 10:54:02;;;;;;;2.85;2.38;;;;;;;3.58;54.60;100963.06;8523708;33;20468;-75
2022/04/03 10:59:11;;;;;;;4.63;3.00;;;;;;;3.57;57.19;100958.69;8550855;32;20958;-75
2022/04/03 11:04:15;;;;;;;3.72;2.78;;;;;;;3.82;56.44;100947.88;8542768;32;20744;-75
2022/04/03 11:09:25;;;;;;;4.72;2.53;;;;;;;4.92;52.84;100948.06;8554249;32;20170;-74
2022/04/03 11:14:56;;;;;;;2.67;2.22;;;;;;;6.14;50.58;100927.66;8573792;32;20159;-75
2022/04/03 11:20:02;;;;;;;2.85;2.35;;;;;;;5.72;52.85;100934.31;8631564;32;20508;-75
2022/04/03 11:25:06;;;;;;;3.17;2.53;;;;;;;5.57;53.05;100942.22;8638258;32;20161;-75
2022/04/03 11:30:10;;;;;;;3.17;2.80;;;;;;;4.82;55.42;100941.47;8630029;32;20242;-76
2022/04/03 11:35:15;;;;;;;3.85;2.72;;;;;;;4.59;56.94;100927.47;8629799;32;20467;-76
2022/04/03 11:40:18;;;;;;;3.83;2.58;;;;;;;4.10;58.25;100929.72;8640160;32;20661;-75
2022/04/03 11:45:22;;;;;;;7.05;3.25;;;;;;;3.71;59.08;100927.06;8630602;32;20548;-74
2022/04/03 11:50:26;;;;;;;3.88;2.72;;;;;;;3.99;59.14;100926.69;8626532;32;20166;-75
2022/04/03 11:55:35;;;;;;;2.35;2.15;;;;;;;3.45;61.15;100929.03;8631782;32;20448;-75
2022/04/03 12:00:47;;;;;;;3.45;2.92;;;;;;;3.46;65.91;100921.97;8597857;33;20918;-75
2022/04/03 12:05:52;;;;;;;3.72;3.00;;;;;;;4.75;62.83;100916.94;8576559;33;20263;-75
2022/04/03 12:10:57;;;;;;;6.70;2.40;;;;;;;5.63;56.94;100899.28;8597360;33;20198;-74
2022/04/03 12:16:00;;;;;;;3.00;2.70;;;;;;;5.49;57.05;100890.19;8601557;33;20252;-74
2022/04/03 12:21:05;;;;;;;4.32;3.10;;;;;;;5.71;57.12;100881.94;8604317;33;20148;-74
2022/04/03 12:26:08;;;;;;;4.22;2.60;;;;;;;6.80;52.95;100869.72;8606468;33;20423;-74
2022/04/03 12:31:13;;;;;;;3.05;2.28;;;;;;;8.93;45.42;100867.28;8603996;33;20443;-75
2022/04/03 12:36:18;;;;;;;3.63;1.90;;;;;;;6.51;47.93;100864.25;8603757;33;20783;-74
2022/04/03 12:41:22;;;;;;;2.25;1.95;;;;;;;6.01;50.69;100875.91;8602896;33;20285;-75
2022/04/03 12:46:25;;;;;;;2.72;2.47;;;;;;;6.85;49.23;100872.97;8597886;33;20190;-74
2022/04/03 12:51:29;;;;;;;3.17;2.50;;;;;;;6.34;49.24;100861.66;8598903;33;20417;-74
2022/04/03 13:01:53;;;;;;;2.00;1.80;;;;;;;10.04;41.03;100825.69;8603540;33;21026;-74
2022/04/03 13:06:58;;;;;;;2.47;2.28;;;;;;;10.83;41.50;100835.09;8606687;33;20419;-75
2022/04/03 13:12:01;;;;;;;2.58;2.25;;;;;;;10.50;40.04;100822.31;8620894;33;20350;-75
2022/04/03 13:17:06;;;;;;;2.05;1.55;;;;;;;8.89;42.64;100830.94;8621743;33;20151;-74
2022/04/03 13:22:15;;;;;;;2.13;2.03;;;;;;;8.70;44.94;100825.94;8621020;33;20183;-74
2022/04/03 13:27:18;;;;;;;2.63;2.38;;;;;;;6.98;46.13;100836.63;8619254;33;20143;-74
2022/04/03 13:32:22;;;;;;;4.10;3.22;;;;;;;4.22;62.15;100856.50;8613075;33;20314;-75
2022/04/03 13:37:26;;;;;;;4.88;3.80;;;;;;;3.32;69.45;100855.28;8610468;33;20187;-75
2022/04/03 13:42:29;;;;;;;4.03;3.63;;;;;;;3.39;74.45;100846.97;8623089;33;20469;-75
2022/04/03 13:47:32;;;;;;;4.93;3.92;;;;;;;3.79;73.38;100841.69;8640853;32;20767;-76
2022/04/03 13:52:37;;;;;;;5.25;3.80;;;;;;;4.44;70.22;100829.75;8649327;32;20418;-76
2022/04/03 13:57:40;;;;;;;4.10;3.65;;;;;;;6.17;66.02;100817.22;8629077;32;20401;-75
2022/04/03 14:02:44;;;;;;;5.65;3.42;;;;;;;6.97;61.12;100792.19;8644274;32;20138;-76
2022/04/03 14:07:48;;;;;;;3.03;2.30;;;;;;;5.21;62.55;100812.63;8637133;32;21019;-75
2022/04/03 14:12:53;;;;;;;3.33;3.03;;;;;;;4.61;64.38;100805.84;8635758;32;20273;-76
2022/04/03 14:17:56;;;;;;;4.05;3.20;;;;;;;4.39;65.01;100805.19;8619328;32;20162;-75
2022/04/03 14:23:00;;;;;;;5.20;3.45;;;;;;;4.31;63.79;100800.22;8662055;32;20189;-75
2022/04/03 14:28:04;;;;;;;4.38;3.40;;;;;;;4.16;66.22;100796.50;8645238;32;22550;-76
2022/04/03 14:33:07;;;;;;;3.85;3.15;;;;;;;3.77;65.60;100801.91;8645092;32;20508;-75
2022/04/03 14:38:13;;;;;;;3.58;3.28;;;;;;;4.03;65.97;100797.16;8660574;32;20469;-75
2022/04/03 14:43:15;;;;;;;4.90;4.07;;;;;;;3.99;65.98;100788.47;8682692;32;20139;-75
2022/04/03 14:48:23;;;;;;;6.40;3.95;;;;;;;4.12;65.30;100783.44;8689413;32;20209;-76
2022/04/03 14:53:27;;;;;;;5.30;4.15;;;;;;;4.11;64.48;100787.91;8688107;32;21226;-75
2022/04/03 14:58:30;;;;;;;6.63;4.00;;;;;;;4.34;63.80;100780.59;8682017;32;20439;-76
2022/04/03 15:03:34;;;;;;;6.05;3.97;;;;;;;4.31;63.35;100783.41;8682628;32;20495;-75
2022/04/03 15:08:39;;;;;;;5.97;4.20;;;;;;;4.90;65.02;100773.38;8679303;32;20635;-76
2022/04/03 15:13:42;;;;;;;2.75;2.55;;;;;;;5.47;62.56;100771.31;8636613;33;20187;-76
2022/04/03 15:18:46;;;;;;;2.70;2.50;;;;;;;5.98;59.34;100765.84;8606673;32;20166;-76
2022/04/03 15:23:51;;;;;;;3.10;2.70;;;;;;;6.46;59.19;100766.69;8588299;33;20164;-76
2022/04/03 15:28:54;;;;;;;3.78;2.40;;;;;;;6.38;56.09;100776.00;8627935;32;20410;-76
2022/04/03 15:33:57;;;;;;;2.67;2.10;;;;;;;6.15;55.27;100765.78;8652408;32;20414;-76
2022/04/03 15:39:05;;;;;;;2.78;2.40;;;;;;;5.92;55.78;100761.72;8640152;33;20412;-75
2022/04/03 15:44:08;;;;;;;3.33;2.10;;;;;;;5.86;55.15;100770.06;8658701;32;20419;-78
2022/04/03 15:49:12;;;;;;;2.63;1.92;;;;;;;6.28;55.10;100757.94;8561008;33;20266;-78
2022/04/03 15:54:18;;;;;;;2.15;1.95;;;;;;;7.00;51.16;100759.09;8564226;33;20265;-79
2022/04/03 15:59:21;;;;;;;1.80;1.70;;;;;;;6.77;49.88;100757.75;8610817;33;20155;-78
2022/04/03 16:04:24;;;;;;;2.65;2.45;;;;;;;6.15;51.28;100763.13;8629416;33;21226;-77
2022/04/03 16:09:29;;;;;;;4.85;2.40;;;;;;;7.42;49.01;100752.94;8636479;32;20425;-79
2022/04/03 16:14:32;;;;;;;4.20;2.65;;;;;;;6.73;49.08;100746.41;8645997;32;20178;-77
2022/04/03 16:19:35;;;;;;;2.20;2.00;;;;;;;7.54;47.10;100745.94;8675005;32;20237;-77
2022/04/03 16:24:41;;;;;;;2.40;2.13;;;;;;;8.04;47.47;100752.59;8671724;32;20775;-77
2022/04/03 16:29:44;;;;;;;5.43;2.55;;;;;;;7.83;49.20;100749.47;8678880;32;20812;-78
2022/04/03 16:34:48;;;;;;;2.45;1.83;;;;;;;6.78;50.89;100740.78;8678688;32;20162;-78
2022/04/03 16:39:52;;;;;;;5.90;2.67;;;;;;;7.19;51.18;100735.66;8650784;32;20143;-78
2022/04/03 16:44:55;;;;;;;2.53;2.30;;;;;;;5.61;50.84;100730.59;8617868;33;20191;-76
2022/04/03 16:49:58;;;;;;;2.83;2.40;;;;;;;5.28;53.53;100740.31;8630352;32;20210;-76
2022/04/03 16:55:02;;;;;;;3.63;3.22;;;;;;;4.89;55.64;100745.91;8649624;32;20258;-76
2022/04/03 17:00:09;;;;;;;4.65;2.80;;;;;;;4.43;55.71;100748.22;8641698;32;20442;-75
2022/04/03 17:05:12;;;;;;;5.13;3.90;;;;;;;4.14;57.02;100758.50;8639493;32;20472;-76
2022/04/03 17:10:19;;;;;;;5.35;4.15;;;;;;;4.04;57.51;100759.88;8617734;33;20492;-76
2022/04/03 17:15:26;;;;;;;8.55;6.60;;;;;;;4.05;57.60;100761.59;8601855;33;20425;-76
2022/04/03 17:20:29;;;;;;;4.32;3.88;;;;;;;4.22;57.95;100760.75;8603169;33;20283;-76
2022/04/03 17:25:33;;;;;;;2.88;2.60;;;;;;;4.47;59.51;100755.13;8603872;33;20208;-75
2022/04/03 17:30:36;;;;;;;4.10;2.80;;;;;;;4.70;61.38;100753.97;8611455;33;21241;-77
2022/04/03 17:35:40;;;;;;;3.42;2.70;;;;;;;4.54;62.81;100759.19;8617033;32;21226;-76
2022/04/03 17:40:44;;;;;;;4.93;3.40;;;;;;;4.71;64.26;100752.16;8628812;32;20393;-77
2022/04/03 17:45:47;;;;;;;8.70;7.35;;;;;;;4.24;64.08;100747.41;8660737;32;20245;-76
2022/04/03 17:50:50;;;;;;;4.57;4.15;;;;;;;3.15;65.49;100744.50;8665781;32;21234;-76
2022/04/03 17:55:56;;;;;;;3.40;3.10;;;;;;;3.33;66.12;100754.31;8676823;32;20479;-77
2022/04/03 18:01:00;;;;;;;5.15;3.58;;;;;;;3.15;65.87;100750.66;8667428;32;21491;-76
2022/04/03 18:06:04;;;;;;;4.28;3.30;;;;;;;3.10;66.33;100760.66;8618117;33;20536;-76
2022/04/03 18:11:14;;;;;;;3.90;3.05;;;;;;;2.96;66.67;100761.25;8622974;33;20508;-76
2022/04/03 18:16:18;;;;;;;2.90;2.50;;;;;;;2.68;67.71;100755.38;8625467;33;20548;-76
2022/04/03 18:21:23;;;;;;;5.18;2.90;;;;;;;2.52;67.73;100763.94;8626470;33;20423;-76
2022/04/03 18:26:27;;;;;;;4.10;2.65;;;;;;;2.43;67.92;100761.69;8624083;33;20232;-76
2022/04/03 18:31:30;;;;;;;6.70;5.22;;;;;;;2.33;68.31;100766.50;8629352;33;21056;-77
2022/04/03 18:36:34;;;;;;;6.28;4.03;;;;;;;2.54;68.08;100772.75;8634663;33;21777;-77
2022/04/03 18:41:39;;;;;;;3.25;2.95;;;;;;;2.58;67.73;100769.06;8638530;33;20181;-77
2022/04/03 18:46:42;;;;;;;3.28;2.40;;;;;;;2.58;67.94;100774.34;8629306;33;21506;-77
2022/04/03 18:51:45;;;;;;;4.55;2.95;;;;;;;2.42;68.49;100769.72;8622745;33;20603;-77
2022/04/03 18:56:52;;;;;;;6.45;4.68;;;;;;;2.37;69.04;100777.84;8615301;33;20974;-77
2022/04/03 19:01:56;;;;;;;3.28;2.97;;;;;;;2.29;69.10;100778.16;8617663;33;20475;-76
2022/04/03 19:06:59;;;;;;;3.50;3.20;;;;;;;2.23;70.00;100775.75;8609976;33;20183;-76
2022/04/03 19:12:06;;;;;;;8.10;5.55;;;;;;;2.22;70.00;100776.66;8619901;33;20228;-77
2022/04/03 19:17:09;;;;;;;4.00;3.60;;;;;;;2.19;70.09;100776.78;8617230;33;20193;-77
2022/04/03 19:22:13;;;;;;;8.43;4.28;;;;;;;1.93;71.15;100776.03;8616988;33;20236;-77
2022/04/03 19:27:18;;;;;;;6.05;3.85;;;;;;;1.87;71.62;100770.97;8626192;32;20249;-77
2022/04/03 19:32:21;;;;;;;5.60;3.00;;;;;;;1.96;70.70;100772.41;8671807;32;20177;-77
2022/04/03 19:37:24;;;;;;;4.23;2.63;;;;;;;1.70;71.68;100768.09;8635280;32;20983;-77
2022/04/03 19:42:30;;;;;;;6.17;3.83;;;;;;;1.72;72.31;100772.41;8671397;32;20402;-77
2022/04/03 19:47:33;;;;;;;4.93;3.63;;;;;;;1.78;72.27;100759.88;8662224;32;20408;-77
2022/04/03 19:52:38;;;;;;;4.60;4.10;;;;;;;1.85;72.57;100753.41;8644120;32;20417;-77
2022/04/03 19:57:42;;;;;;;5.73;3.17;;;;;;;1.98;72.35;100759.13;8675048;32;20138;-77
2022/04/03 20:02:45;;;;;;;5.20;3.65;;;;;;;1.97;72.27;100760.88;8675565;32;20747;-77
2022/04/03 20:07:48;;;;;;;6.10;3.47;;;;;;;1.91;72.11;100767.28;8664100;32;20429;-76
2022/04/03 20:12:53;;;;;;;4.40;4.00;;;;;;;1.78;72.87;100752.78;8671371;32;20966;-76
2022/04/03 20:17:56;;;;;;;3.90;3.07;;;;;;;1.57;73.26;100748.31;8674565;32;20236;-75
2022/04/03 20:22:59;;;;;;;4.97;3.00;;;;;;;1.47;73.65;100755.75;8663363;32;20178;-76
2022/04/03 20:28:04;;;;;;;6.00;3.88;;;;;;;1.62;73.05;100749.88;8662827;32;20241;-76
2022/04/03 20:33:08;;;;;;;5.93;4.03;;;;;;;1.56;73.20;100749.22;8674034;32;20462;-76
2022/04/03 20:38:11;;;;;;;5.67;3.40;;;;;;;1.56;73.25;100747.44;8677231;32;20180;-76
2022/04/03 20:43:15;;;;;;;5.43;3.22;;;;;;;1.55;73.34;100750.16;8677895;32;20182;-76
2022/04/03 20:48:19;;;;;;;3.72;3.22;;;;;;;1.30;74.10;100739.63;8676449;32;21019;-76
2022/04/03 20:53:22;;;;;;;3.95;3.45;;;;;;;1.20;74.17;100737.28;8678454;32;21090;-76
2022/04/03 20:58:27;;;;;;;4.77;3.23;;;;;;;1.14;75.01;100734.88;8676406;32;20494;-76
2022/04/03 21:03:30;;;;;;;4.57;4.00;;;;;;;1.15;75.44;100741.03;8658934;32;21118;-76
2022/04/03 21:08:34;;;;;;;5.70;4.33;;;;;;;1.01;75.40;100742.38;8640102;32;20598;-76
2022/04/03 21:13:39;;;;;;;5.37;3.73;;;;;;;1.20;75.12;100728.50;8650812;32;20151;-76
2022/04/03 21:18:42;;;;;;;5.53;3.93;;;;;;;1.06;75.38;100737.81;8639593;32;20977;-76
2022/04/03 21:23:45;;;;;;;6.63;4.60;;;;;;;1.19;75.41;100732.06;8633041;32;20151;-76
2022/04/03 21:28:51;;;;;;;6.20;3.70;;;;;;;1.09;74.78;100728.03;8633943;32;20460;-76
2022/04/03 21:33:55;;;;;;;3.83;2.77;;;;;;;0.95;75.53;100723.25;8649171;32;21356;-76
2022/04/03 21:38:58;;;;;;;6.47;4.27;;;;;;;1.08;76.15;100719.22;8636842;32;20402;-75
2022/04/03 21:44:03;;;;;;;11.20;4.03;;;;;;;1.10;75.89;100714.75;8635274;32;20473;-75
2022/04/03 21:49:06;;;;;;;6.97;4.10;;;;;;;1.09;76.35;100712.16;8625989;32;20194;-75
2022/04/03 21:54:09;;;;;;;4.47;3.37;;;;;;;1.03;75.85;100713.25;8643988;32;20486;-76
2022/04/03 21:59:13;;;;;;;5.73;4.23;;;;;;;1.09;76.48;100718.31;8618805;32;20354;-75
2022/04/03 22:04:17;;;;;;;3.87;3.40;;;;;;;0.88;76.86;100713.78;8619139;32;20312;-76
2022/04/03 22:09:20;;;;;;;5.53;4.10;;;;;;;1.03;76.18;100700.00;8596957;32;20379;-75
2022/04/03 22:14:24;;;;;;;6.13;4.47;;;;;;;0.88;76.93;100698.81;8548954;33;20444;-76
2022/04/03 22:19:27;;;;;;;6.33;4.40;;;;;;;0.82;76.71;100701.63;8541879;33;20162;-76
2022/04/03 22:24:32;;;;;;;3.40;2.60;;;;;;;0.80;77.22;100696.41;8543163;33;20414;-76
2022/04/03 22:29:36;;;;;;;4.75;3.95;;;;;;;0.72;77.74;100709.06;8545706;33;20473;-77
2022/04/03 22:34:41;;;;;;;6.87;4.70;;;;;;;0.90;76.88;100696.09;8544811;33;20961;-75
2022/04/03 22:39:44;;;;;;;5.73;4.20;;;;;;;0.95;76.98;100687.06;8543663;33;20153;-76
2022/04/03 22:44:48;;;;;;;4.07;2.67;;;;;;;0.85;76.50;100685.69;8544918;33;20594;-76
2022/04/03 22:49:52;;;;;;;6.03;4.10;;;;;;;1.08;76.29;100681.34;8546852;33;20514;-75
2022/04/03 22:54:55;;;;;;;7.50;4.70;;;;;;;1.03;76.38;100679.72;8544660;33;20542;-75
2022/04/03 22:59:59;;;;;;;8.10;3.67;;;;;;;1.00;76.23;100676.31;8541830;33;20394;-76
2022/04/03 23:05:03;;;;;;;8.70;5.00;;;;;;;0.89;76.71;100668.78;8542540;33;21893;-75
2022/04/03 23:10:08;;;;;;;8.27;4.80;;;;;;;1.06;76.14;100660.22;8545124;33;20423;-75
2022/04/03 23:15:13;;;;;;;7.10;4.63;;;;;;;1.09;75.57;100652.16;8547215;33;20956;-76
2022/04/03 23:20:16;;;;;;;7.60;4.70;;;;;;;0.93;76.39;100648.34;8545336;33;20670;-75
2022/04/03 23:25:19;;;;;;;6.93;4.83;;;;;;;0.97;75.79;100647.34;8538949;33;20197;-76
2022/04/03 23:30:24;;;;;;;6.80;4.97;;;;;;;0.97;76.07;100644.69;8540195;33;20908;-75
2022/04/03 23:35:29;;;;;;;8.03;4.97;;;;;;;0.94;76.01;100636.88;8540843;33;20428;-74
2022/04/03 23:40:32;;;;;;;8.30;5.27;;;;;;;0.92;76.08;100633.41;8540151;33;20889;-75
2022/04/03 23:45:38;;;;;;;6.40;5.27;;;;;;;0.96;75.72;100624.44;8544625;33;20406;-75
2022/04/03 23:50:41;;;;;;;7.73;5.00;;;;;;;0.93;75.97;100621.91;8541306;33;20880;-75